createdAt,value
2018-01-12T00:00:17.826Z,12.27
2018-01-12T00:02:47.658Z,11.43
2018-01-12T00:07:50.450Z,12.32
2018-01-12T00:10:18.837Z,11.27
2018-01-12T00:12:48.068Z,12.90
2018-01-12T00:15:16.459Z,12.43
2018-01-12T00:17:51.192Z,13.05
2018-01-12T00:20:24.262Z,11.43
2018-01-12T00:22:52.869Z,12.88
2018-01-12T00:25:21.234Z,13.40
2018-01-12T00:27:49.538Z,12.70
2018-01-12T00:30:19.349Z,13.62
2018-01-12T00:32:47.684Z,13.25
2018-01-12T00:35:16.031Z,13.43
2018-01-12T00:37:44.364Z,14.20
2018-01-12T00:40:12.695Z,13.50
2018-01-12T00:42:41.062Z,12.98
2018-01-12T00:45:09.413Z,13.75
2018-01-12T00:47:38.557Z,13.05
2018-01-12T00:50:06.845Z,12.10
2018-01-12T00:52:37.014Z,11.93
2018-01-12T00:55:07.093Z,12.00
2018-01-12T01:00:10.941Z,12.85
2018-01-12T01:02:39.257Z,12.02
2018-01-12T01:05:22.143Z,12.27
2018-01-12T01:07:50.472Z,13.07
2018-01-12T01:10:19.073Z,11.15
2018-01-12T01:12:47.424Z,12.52
2018-01-12T01:15:15.777Z,12.63
2018-01-12T01:17:44.180Z,12.55
2018-01-12T01:20:12.503Z,12.65
2018-01-12T01:22:43.137Z,12.70
2018-01-12T01:25:11.545Z,12.37
2018-01-12T01:27:47.272Z,13.02
2018-01-12T01:30:15.598Z,12.55
2018-01-12T01:32:43.869Z,13.05
2018-01-12T01:35:23.344Z,13.75
2018-01-12T01:37:51.703Z,13.02
2018-01-12T01:40:20.067Z,12.50
2018-01-12T01:42:48.420Z,13.65
2018-01-12T01:45:16.738Z,13.20
2018-01-12T01:47:46.810Z,12.50
2018-01-12T01:52:54.282Z,12.57
2018-01-12T01:55:22.705Z,13.02
2018-01-12T01:57:50.996Z,12.95
2018-01-12T02:00:19.532Z,12.68
2018-01-12T02:02:48.620Z,13.30
2018-01-12T02:05:16.831Z,12.70
2018-01-12T02:07:45.152Z,13.65
2018-01-12T02:10:13.345Z,12.70
2018-01-12T02:12:41.592Z,13.18
2018-01-12T02:15:09.806Z,12.25
2018-01-12T02:17:38.106Z,12.23
2018-01-12T02:20:07.106Z,11.77
2018-01-12T02:22:35.340Z,11.70
2018-01-12T02:25:03.596Z,10.77
2018-01-12T02:27:31.815Z,11.48
2018-01-12T02:30:01.234Z,11.02
2018-01-12T02:32:29.543Z,11.18
2018-01-12T02:34:57.769Z,12.27
2018-01-12T02:37:27.712Z,11.25
2018-01-12T02:39:55.940Z,10.85
2018-01-12T02:42:24.187Z,10.23
2018-01-12T02:44:52.400Z,10.90
2018-01-12T02:47:21.413Z,10.38
2018-01-12T02:49:49.647Z,11.20
2018-01-12T02:52:17.857Z,10.70
2018-01-12T02:54:46.082Z,11.10
2018-01-12T02:57:14.330Z,11.65
2018-01-12T02:59:42.575Z,11.40
2018-01-12T03:02:11.607Z,11.77
2018-01-12T03:04:39.848Z,12.40
2018-01-12T03:07:08.826Z,11.73
2018-01-12T03:09:37.827Z,12.48
2018-01-12T03:12:06.798Z,12.57
2018-01-12T03:14:35.007Z,11.63
2018-01-12T03:17:03.251Z,12.50
2018-01-12T03:19:31.471Z,10.93
2018-01-12T03:21:59.663Z,12.52
2018-01-12T03:24:27.882Z,12.30
2018-01-12T03:26:56.878Z,12.90
2018-01-12T03:29:25.918Z,12.75
2018-01-12T03:31:54.212Z,13.20
2018-01-12T03:34:22.569Z,14.10
2018-01-12T03:36:50.803Z,14.90
2018-01-12T03:39:19.814Z,12.35
2018-01-12T03:41:48.024Z,15.02
2018-01-12T03:44:16.283Z,15.50
2018-01-12T03:46:44.593Z,16.00
2018-01-12T03:49:12.792Z,15.80
2018-01-12T03:51:41.045Z,15.27
2018-01-12T03:54:09.532Z,15.57
2018-01-12T03:56:37.790Z,16.27
2018-01-12T03:59:05.983Z,16.33
2018-01-12T04:01:34.221Z,16.98
2018-01-12T04:04:04.023Z,18.40
2018-01-12T04:06:32.210Z,17.37
2018-01-12T04:09:00.427Z,19.08
2018-01-12T04:11:28.611Z,18.40
2018-01-12T04:13:57.612Z,19.05
2018-01-12T04:16:26.586Z,20.65
2018-01-12T04:18:54.794Z,18.92
2018-01-12T04:21:23.134Z,20.35
2018-01-12T04:23:51.367Z,20.37
2018-01-12T04:26:19.574Z,20.15
2018-01-12T04:28:47.841Z,21.80
2018-01-12T04:31:16.052Z,20.90
2018-01-12T04:33:45.045Z,22.08
2018-01-12T04:36:13.994Z,21.12
2018-01-12T04:38:42.204Z,22.35
2018-01-12T04:41:11.161Z,22.77
2018-01-12T04:43:39.478Z,22.05
2018-01-12T04:46:08.484Z,22.05
2018-01-12T04:48:36.737Z,24.12
2018-01-12T04:51:05.713Z,24.75
2018-01-12T04:53:33.890Z,24.80
2018-01-12T04:56:02.114Z,23.52
2018-01-12T04:58:30.314Z,26.25
2018-01-12T05:00:58.522Z,24.37
2018-01-12T05:03:27.480Z,25.37
2018-01-12T05:05:55.683Z,24.23
2018-01-12T05:08:24.701Z,25.15
2018-01-12T05:10:52.954Z,24.75
2018-01-12T05:13:21.955Z,25.88
2018-01-12T05:15:50.939Z,25.50
2018-01-12T05:18:19.941Z,25.77
2018-01-12T05:20:48.998Z,27.48
2018-01-12T05:23:17.267Z,27.48
2018-01-12T05:25:45.458Z,27.23
2018-01-12T05:28:13.676Z,27.37
2018-01-12T05:30:41.868Z,26.62
2018-01-12T05:33:10.080Z,29.30
2018-01-12T05:35:38.321Z,27.75
2018-01-12T05:38:06.631Z,26.00
2018-01-12T05:40:34.954Z,27.08
2018-01-12T05:43:03.158Z,27.10
2018-01-12T05:45:31.479Z,27.33
2018-01-12T05:47:59.731Z,25.50
2018-01-12T05:50:27.956Z,25.83
2018-01-12T05:52:56.138Z,25.67
2018-01-12T05:55:25.505Z,26.42
2018-01-12T05:57:53.725Z,25.83
2018-01-12T06:00:22.755Z,27.15
2018-01-12T06:03:08.753Z,26.90
2018-01-12T06:09:04.883Z,25.80
2018-01-12T06:11:33.132Z,27.30
2018-01-12T06:14:01.504Z,25.20
2018-01-12T06:16:29.697Z,26.25
2018-01-12T06:18:57.901Z,26.92
2018-01-12T06:21:26.099Z,27.40
2018-01-12T06:23:54.666Z,24.30
2018-01-12T06:26:23.017Z,26.17
2018-01-12T06:28:51.210Z,25.58
2018-01-12T06:31:20.130Z,25.67
2018-01-12T06:33:48.764Z,25.83
2018-01-12T06:36:17.007Z,25.90
2018-01-12T06:38:45.250Z,26.85
2018-01-12T06:41:14.240Z,24.65
2018-01-12T06:43:43.348Z,25.48
2018-01-12T06:46:11.595Z,22.70
2018-01-12T06:48:39.891Z,24.77
2018-01-12T06:51:08.121Z,25.55
2018-01-12T06:53:36.327Z,24.37
2018-01-12T06:56:05.277Z,23.38
2018-01-12T06:58:33.539Z,24.20
2018-01-12T07:01:01.739Z,24.02
2018-01-12T07:03:29.954Z,25.12
2018-01-12T07:05:58.195Z,24.75
2018-01-12T07:08:26.384Z,23.10
2018-01-12T07:10:55.418Z,25.08
2018-01-12T07:13:24.534Z,24.73
2018-01-12T07:15:52.783Z,24.42
2018-01-12T07:18:21.045Z,23.92
2018-01-12T07:21:07.025Z,24.37
2018-01-12T07:23:48.774Z,26.50
2018-01-12T07:26:17.310Z,23.23
2018-01-12T07:28:45.546Z,24.27
2018-01-12T07:31:14.546Z,25.65
2018-01-12T07:33:42.850Z,25.02
2018-01-12T07:36:11.074Z,24.48
2018-01-12T07:38:39.301Z,25.02
2018-01-12T07:41:07.519Z,25.70
2018-01-12T07:43:35.795Z,26.45
2018-01-12T07:46:03.998Z,25.27
2018-01-12T07:48:32.989Z,26.95
2018-01-12T07:51:01.989Z,26.33
2018-01-12T07:53:30.215Z,26.87
2018-01-12T07:55:58.444Z,27.02
2018-01-12T07:58:27.415Z,27.45
2018-01-12T08:01:01.274Z,25.75
2018-01-12T08:03:30.593Z,26.08
2018-01-12T08:05:59.764Z,26.67
2018-01-12T08:08:28.111Z,28.05
2018-01-12T08:10:57.093Z,26.30
2018-01-12T08:13:26.093Z,27.30
2018-01-12T08:15:55.060Z,27.15
2018-01-12T08:18:23.365Z,26.98
2018-01-12T08:20:52.320Z,28.55
2018-01-12T08:23:20.565Z,26.17
2018-01-12T08:25:48.821Z,29.50
2018-01-12T08:28:17.134Z,27.58
2018-01-12T08:30:45.417Z,28.42
2018-01-12T08:33:13.669Z,29.65
2018-01-12T08:35:41.926Z,28.15
2018-01-12T08:38:10.126Z,27.55
2018-01-12T08:40:38.387Z,30.42
2018-01-12T08:43:07.355Z,28.98
2018-01-12T08:45:35.666Z,29.45
2018-01-12T08:48:03.955Z,30.02
2018-01-12T08:50:32.198Z,29.60
2018-01-12T08:53:00.414Z,30.33
2018-01-12T08:55:28.646Z,28.42
2018-01-12T08:57:56.826Z,29.12
2018-01-12T09:00:26.691Z,29.00
2018-01-12T09:02:55.750Z,28.92
2018-01-12T09:05:24.045Z,29.25
2018-01-12T09:07:52.285Z,28.50
2018-01-12T09:10:21.079Z,29.02
2018-01-12T09:12:49.350Z,28.73
2018-01-12T09:15:23.098Z,27.70
2018-01-12T09:17:51.353Z,30.70
2018-01-12T09:20:19.567Z,28.20
2018-01-12T09:22:48.752Z,28.92
2018-01-12T09:25:25.679Z,29.30
2018-01-12T09:27:54.598Z,28.20
2018-01-12T09:30:22.868Z,28.38
2018-01-12T09:32:51.884Z,28.80
2018-01-12T09:35:21.614Z,28.92
2018-01-12T09:41:02.891Z,29.30
2018-01-12T09:43:31.088Z,29.23
2018-01-12T09:45:59.320Z,28.60
2018-01-12T09:48:27.525Z,29.12
2018-01-12T09:50:56.485Z,28.27
2018-01-12T09:53:24.705Z,28.52
2018-01-12T09:55:52.876Z,26.58
2018-01-12T09:58:21.073Z,28.35
2018-01-12T10:01:02.936Z,28.38
2018-01-12T10:03:31.885Z,28.83
2018-01-12T10:06:00.103Z,27.50
2018-01-12T10:08:28.326Z,29.00
2018-01-12T10:10:56.538Z,28.73
2018-01-12T10:13:24.761Z,27.87
2018-01-12T10:15:52.991Z,29.55
2018-01-12T10:18:35.702Z,28.05
2018-01-12T10:21:19.312Z,28.90
2018-01-12T10:23:47.511Z,29.67
2018-01-12T10:26:15.733Z,30.35
2018-01-12T10:29:01.600Z,27.17
2018-01-12T10:34:44.609Z,27.55
2018-01-12T10:37:13.551Z,26.73
2018-01-12T10:39:59.373Z,27.50
2018-01-12T10:42:27.642Z,26.70
2018-01-12T10:44:55.948Z,27.70
2018-01-12T10:47:27.994Z,27.30
2018-01-12T10:50:17.826Z,27.98
2018-01-12T10:52:50.890Z,28.58
2018-01-12T10:55:19.130Z,26.87
2018-01-12T10:57:47.318Z,27.33
2018-01-12T11:00:33.402Z,28.15
2018-01-12T11:03:02.435Z,27.65
2018-01-12T11:05:30.706Z,28.15
2018-01-12T11:07:58.898Z,27.13
2018-01-12T11:10:27.149Z,28.10
2018-01-12T11:12:55.412Z,27.02
2018-01-12T11:15:23.606Z,27.67
2018-01-12T11:17:51.837Z,27.67
2018-01-12T11:20:20.084Z,27.80
2018-01-12T11:22:48.312Z,26.55
2018-01-12T11:25:16.514Z,27.25
2018-01-12T11:27:44.723Z,28.77
2018-01-12T11:30:12.933Z,27.10
2018-01-12T11:32:41.887Z,27.35
2018-01-12T11:35:10.083Z,26.23
2018-01-12T11:37:39.075Z,26.73
2018-01-12T11:40:08.038Z,25.88
2018-01-12T11:42:36.251Z,27.20
2018-01-12T11:45:05.275Z,26.73
2018-01-12T11:47:33.467Z,27.90
2018-01-12T11:50:01.707Z,26.52
2018-01-12T11:52:29.933Z,27.90
2018-01-12T11:54:58.151Z,26.98
2018-01-12T11:57:26.389Z,27.20
2018-01-12T11:59:54.789Z,25.90
2018-01-12T12:02:23.766Z,25.75
2018-01-12T12:04:51.954Z,27.65
2018-01-12T12:07:20.901Z,26.67
2018-01-12T12:09:49.127Z,26.23
2018-01-12T12:12:17.330Z,26.33
2018-01-12T12:14:45.590Z,25.25
2018-01-12T12:17:13.818Z,24.30
2018-01-12T12:19:42.054Z,24.40
2018-01-12T12:22:10.423Z,26.25
2018-01-12T12:24:38.991Z,23.90
2018-01-12T12:27:07.192Z,25.10
2018-01-12T12:29:35.490Z,25.52
2018-01-12T12:32:03.727Z,25.12
2018-01-12T12:34:32.016Z,25.88
2018-01-12T12:37:00.233Z,23.10
2018-01-12T12:39:29.233Z,23.25
2018-01-12T12:41:58.217Z,22.83
2018-01-12T12:44:28.053Z,22.98
2018-01-12T12:46:57.073Z,23.35
2018-01-12T12:49:25.262Z,23.80
2018-01-12T12:51:53.461Z,24.02
2018-01-12T12:54:21.659Z,21.02
2018-01-12T12:56:50.638Z,21.80
2018-01-12T12:59:19.602Z,21.55
2018-01-12T13:01:47.792Z,23.12
2018-01-12T13:04:17.410Z,21.48
2018-01-12T13:06:45.647Z,21.25
2018-01-12T13:09:13.881Z,22.00
2018-01-12T13:11:42.073Z,19.75
2018-01-12T13:14:10.307Z,21.08
2018-01-12T13:16:39.407Z,21.30
2018-01-12T13:19:08.364Z,21.42
2018-01-12T13:21:36.601Z,21.65
2018-01-12T13:24:05.029Z,20.98
2018-01-12T13:26:33.290Z,19.83
2018-01-12T13:29:01.513Z,22.25
2018-01-12T13:31:29.726Z,21.90
2018-01-12T13:33:57.970Z,21.20
2018-01-12T13:36:26.261Z,20.92
2018-01-12T13:38:55.447Z,20.83
2018-01-12T13:41:23.755Z,20.60
2018-01-12T13:43:51.997Z,20.52
2018-01-12T13:46:20.196Z,17.77
2018-01-12T13:48:48.478Z,20.52
2018-01-12T13:51:16.886Z,20.30
2018-01-12T13:53:45.117Z,20.37
2018-01-12T13:56:13.314Z,19.95
2018-01-12T13:58:41.519Z,20.75
2018-01-12T14:01:10.508Z,20.98
2018-01-12T14:03:39.687Z,19.12
2018-01-12T14:06:07.886Z,18.45
2018-01-12T14:08:36.909Z,19.02
2018-01-12T14:11:05.846Z,18.60
2018-01-12T14:13:34.082Z,20.10
2018-01-12T14:16:02.320Z,19.15
2018-01-12T14:18:31.344Z,19.15
2018-01-12T14:21:00.168Z,19.20
2018-01-12T14:23:29.813Z,18.40
2018-01-12T14:25:58.005Z,19.40
2018-01-12T14:28:26.347Z,18.05
2018-01-12T14:30:55.437Z,17.33
2018-01-12T14:33:24.394Z,19.15
2018-01-12T14:35:52.617Z,17.73
2018-01-12T14:38:21.628Z,17.35
2018-01-12T14:40:49.822Z,16.10
2018-01-12T14:43:18.003Z,16.75
2018-01-12T14:45:46.194Z,17.42
2018-01-12T14:48:14.446Z,16.70
2018-01-12T14:50:42.678Z,18.23
2018-01-12T14:53:10.917Z,17.10
2018-01-12T14:55:39.143Z,16.85
2018-01-12T14:58:07.386Z,16.60
2018-01-12T15:00:35.616Z,17.02
2018-01-12T15:03:03.924Z,16.85
2018-01-12T15:05:32.165Z,16.58
2018-01-12T15:08:00.365Z,15.70
2018-01-12T15:10:28.634Z,15.48
2018-01-12T15:12:56.979Z,16.15
2018-01-12T15:15:25.249Z,15.70
2018-01-12T15:17:53.439Z,14.93
2018-01-12T15:20:22.836Z,15.63
2018-01-12T15:22:51.148Z,14.90
2018-01-12T15:25:19.369Z,15.13
2018-01-12T15:27:47.654Z,14.30
2018-01-12T15:30:15.866Z,14.18
2018-01-12T15:32:44.104Z,13.90
2018-01-12T15:35:12.922Z,14.10
2018-01-12T15:37:41.450Z,13.85
2018-01-12T15:40:10.420Z,12.98
2018-01-12T15:42:39.409Z,14.07
2018-01-12T15:45:07.619Z,14.10
2018-01-12T15:47:35.818Z,14.18
2018-01-12T15:50:05.154Z,13.25
2018-01-12T15:52:33.375Z,14.52
2018-01-12T15:55:01.686Z,13.55
2018-01-12T15:57:30.681Z,12.88
2018-01-12T15:59:58.902Z,13.50
2018-01-12T16:02:27.226Z,13.23
2018-01-12T16:04:55.434Z,13.23
2018-01-12T16:07:24.418Z,12.95
2018-01-12T16:09:52.634Z,12.98
2018-01-12T16:12:20.845Z,12.85
2018-01-12T16:14:49.043Z,12.45
2018-01-12T16:17:17.232Z,13.90
2018-01-12T16:19:46.202Z,14.15
2018-01-12T16:22:14.420Z,13.95
2018-01-12T16:24:42.660Z,12.37
2018-01-12T16:27:11.649Z,13.07
2018-01-12T16:29:40.609Z,12.95
2018-01-12T16:32:08.902Z,12.15
2018-01-12T16:34:37.166Z,13.55
2018-01-12T16:37:05.396Z,12.05
2018-01-12T16:39:33.636Z,12.32
2018-01-12T16:42:01.833Z,12.00
2018-01-12T16:44:30.798Z,12.23
2018-01-12T16:46:59.049Z,13.57
2018-01-12T16:49:27.278Z,13.35
2018-01-12T16:51:55.545Z,11.90
2018-01-12T16:54:24.517Z,12.07
2018-01-12T16:56:52.794Z,11.75
2018-01-12T16:59:21.028Z,12.35
2018-01-12T17:01:49.246Z,11.93
2018-01-12T17:04:18.273Z,12.05
2018-01-12T17:06:46.478Z,11.90
2018-01-12T17:09:14.719Z,11.70
2018-01-12T17:11:43.000Z,11.43
2018-01-12T17:14:11.215Z,11.20
2018-01-12T17:16:39.511Z,11.93
2018-01-12T17:19:08.517Z,11.98
2018-01-12T17:21:36.749Z,12.15
2018-01-12T17:24:04.953Z,11.98
2018-01-12T17:26:33.979Z,12.45
2018-01-12T17:29:03.000Z,11.05
2018-01-12T17:31:31.268Z,12.40
2018-01-12T17:33:59.562Z,12.50
2018-01-12T17:36:27.790Z,11.98
2018-01-12T17:38:56.076Z,12.13
2018-01-12T17:41:24.278Z,11.60
2018-01-12T17:43:52.485Z,12.40
2018-01-12T17:46:21.588Z,12.48
2018-01-12T17:48:50.575Z,12.13
2018-01-12T17:51:19.598Z,10.90
2018-01-12T17:53:48.799Z,12.55
2018-01-12T17:56:17.117Z,12.80
2018-01-12T17:58:45.343Z,10.95
2018-01-12T18:01:13.612Z,11.82
2018-01-12T18:03:41.850Z,12.02
2018-01-12T18:06:10.159Z,12.55
2018-01-12T18:08:38.374Z,12.65
2018-01-12T18:11:06.575Z,11.77
2018-01-12T18:13:34.851Z,12.43
2018-01-12T18:16:03.855Z,12.88
2018-01-12T18:18:32.050Z,13.30
2018-01-12T18:21:00.233Z,13.35
2018-01-12T18:23:28.546Z,13.50
2018-01-12T18:25:56.774Z,13.13
2018-01-12T18:28:24.983Z,12.18
2018-01-12T18:30:53.183Z,12.88
2018-01-12T18:33:21.383Z,13.00
2018-01-12T18:35:50.358Z,13.45
2018-01-12T18:38:18.580Z,13.55
2018-01-12T18:40:46.787Z,13.75
2018-01-12T18:43:15.151Z,13.10
2018-01-12T18:45:43.350Z,14.25
2018-01-12T18:48:11.701Z,14.40
2018-01-12T18:50:39.977Z,13.48
2018-01-12T18:53:08.280Z,13.77
2018-01-12T18:55:36.487Z,13.75
2018-01-12T18:58:04.771Z,14.70
2018-01-12T19:00:32.973Z,13.00
2018-01-12T19:03:01.146Z,13.75
2018-01-12T19:05:29.442Z,15.43
2018-01-12T19:07:57.770Z,13.73
2018-01-12T19:10:26.085Z,13.90
2018-01-12T19:19:08.549Z,14.20
2018-01-12T19:21:36.754Z,15.57
2018-01-12T19:24:05.779Z,22.25
2018-01-12T19:26:34.012Z,26.80
2018-01-12T19:29:02.277Z,29.80
2018-01-12T19:31:30.583Z,32.15
2018-01-12T19:33:59.575Z,31.08
2018-01-12T19:36:27.909Z,29.10
2018-01-12T19:38:56.184Z,28.42
2018-01-12T19:41:24.425Z,27.95
2018-01-12T19:43:52.646Z,25.50
2018-01-12T19:46:20.844Z,24.30
2018-01-12T19:48:49.039Z,22.30
2018-01-12T19:51:17.283Z,21.42
2018-01-12T19:53:45.542Z,19.20
2018-01-12T19:56:13.798Z,20.75
2018-01-12T19:58:42.157Z,20.67
2018-01-12T20:01:10.455Z,20.60
2018-01-12T20:03:38.765Z,19.90
2018-01-12T20:06:08.082Z,18.90
2018-01-12T20:08:36.476Z,18.90
2018-01-12T20:11:05.566Z,18.65
2018-01-12T20:13:33.837Z,17.55
2018-01-12T20:16:02.072Z,18.08
2018-01-12T20:18:30.329Z,16.83
2018-01-12T20:20:58.569Z,16.17
2018-01-12T20:23:26.798Z,17.98
2018-01-12T20:25:55.108Z,17.95
2018-01-12T20:28:23.330Z,17.00
2018-01-12T20:30:51.574Z,16.45
2018-01-12T20:33:19.788Z,15.90
2018-01-12T20:35:48.023Z,17.10
2018-01-12T20:38:16.343Z,17.05
2018-01-12T20:40:44.615Z,16.52
2018-01-12T20:43:12.832Z,16.85
2018-01-12T20:45:41.066Z,17.02
2018-01-12T20:48:09.268Z,17.42
2018-01-12T20:50:38.253Z,16.60
2018-01-12T20:53:07.258Z,16.25
2018-01-12T20:55:36.210Z,16.62
2018-01-12T20:58:04.425Z,17.37
2018-01-12T21:00:32.655Z,15.25
2018-01-12T21:03:01.043Z,16.40
2018-01-12T21:05:29.351Z,16.17
2018-01-12T21:07:58.340Z,16.08
2018-01-12T21:10:27.345Z,17.50
2018-01-12T21:12:55.583Z,16.60
2018-01-12T21:15:23.910Z,16.30
2018-01-12T21:17:52.215Z,15.50
2018-01-12T21:20:20.470Z,15.63
2018-01-12T21:22:48.992Z,15.70
2018-01-12T21:25:17.343Z,16.65
2018-01-12T21:27:45.606Z,16.15
2018-01-12T21:30:13.916Z,15.80
2018-01-12T21:32:42.168Z,16.85
2018-01-12T21:35:10.442Z,16.98
2018-01-12T21:37:38.678Z,16.40
2018-01-12T21:40:06.944Z,17.15
2018-01-12T21:42:35.935Z,15.68
2018-01-12T21:45:04.967Z,16.00
2018-01-12T21:47:33.396Z,15.93
2018-01-12T21:50:02.457Z,17.17
2018-01-12T21:52:30.785Z,16.50
2018-01-12T21:54:59.080Z,17.30
2018-01-12T21:57:27.303Z,15.93
2018-01-12T21:59:55.572Z,15.65
2018-01-12T22:02:23.844Z,16.83
2018-01-12T22:04:52.093Z,16.62
2018-01-12T22:07:20.317Z,17.85
2018-01-12T22:09:49.253Z,16.80
2018-01-12T22:12:17.626Z,16.92
2018-01-12T22:14:45.832Z,17.42
2018-01-12T22:17:14.077Z,16.50
2018-01-12T22:19:42.281Z,17.15
2018-01-12T22:22:10.557Z,15.98
2018-01-12T22:24:38.780Z,16.70
2018-01-12T22:27:07.073Z,16.50
2018-01-12T22:29:35.263Z,15.50
2018-01-12T22:32:03.508Z,16.05
2018-01-12T22:34:31.753Z,16.90
2018-01-12T22:37:00.886Z,17.58
2018-01-12T22:42:09.791Z,17.75
2018-01-12T22:44:38.772Z,17.33
2018-01-12T22:47:07.009Z,17.23
2018-01-12T22:49:35.264Z,16.85
2018-01-12T22:52:03.488Z,16.55
2018-01-12T22:54:31.732Z,17.12
2018-01-12T22:56:59.947Z,16.05
2018-01-12T22:59:29.046Z,16.37
2018-01-12T23:01:58.027Z,17.55
2018-01-12T23:04:26.277Z,16.52
2018-01-12T23:06:55.217Z,17.08
2018-01-12T23:09:23.404Z,17.87
2018-01-12T23:11:51.623Z,17.15
2018-01-12T23:14:20.581Z,17.30
2018-01-12T23:16:48.840Z,17.50
2018-01-12T23:19:17.822Z,18.25
2018-01-12T23:21:46.138Z,17.65
2018-01-12T23:24:14.321Z,16.65
2018-01-12T23:26:42.569Z,16.67
2018-01-12T23:29:10.817Z,16.58
2018-01-12T23:31:39.022Z,15.85
2018-01-12T23:34:07.314Z,16.00
2018-01-12T23:36:35.501Z,16.70
2018-01-12T23:39:03.685Z,15.98
2018-01-12T23:41:31.940Z,15.77
2018-01-12T23:44:01.017Z,16.58
2018-01-12T23:46:29.221Z,16.27
2018-01-12T23:48:57.428Z,15.60
2018-01-12T23:51:26.382Z,16.62
2018-01-12T23:53:54.579Z,17.15
2018-01-12T23:56:23.574Z,16.25
2018-01-12T23:58:51.878Z,15.95
